sensor_id;sensor_type;location;lat;lon;timestamp;P1;durP1;ratioP1;P2;durP2;ratioP2
59790;SDS011;47431;51.640;5.554;2023-10-13T00:01:33;27.63;;;18.63;;
59790;SDS011;47431;51.640;5.554;2023-10-13T00:03:59;29.73;;;17.95;;
59790;SDS011;47431;51.640;5.554;2023-10-13T00:06:27;30.42;;;17.40;;
59790;SDS011;47431;51.640;5.554;2023-10-13T00:08:52;28.55;;;18.13;;
59790;SDS011;47431;51.640;5.554;2023-10-13T00:11:17;28.27;;;17.73;;
59790;SDS011;47431;51.640;5.554;2023-10-13T00:13:44;28.23;;;18.08;;
59790;SDS011;47431;51.640;5.554;2023-10-13T00:16:18;28.60;;;19.10;;
59790;SDS011;47431;51.640;5.554;2023-10-13T00:18:47;27.83;;;18.88;;
59790;SDS011;47431;51.640;5.554;2023-10-13T00:21:19;29.38;;;20.33;;
59790;SDS011;47431;51.640;5.554;2023-10-13T00:23:57;28.05;;;19.80;;
59790;SDS011;47431;51.640;5.554;2023-10-13T00:26:26;36.60;;;19.17;;
59790;SDS011;47431;51.640;5.554;2023-10-13T00:29:00;31.80;;;18.33;;
59790;SDS011;47431;51.640;5.554;2023-10-13T00:31:37;27.65;;;16.80;;
59790;SDS011;47431;51.640;5.554;2023-10-13T00:34:05;23.75;;;17.33;;
59790;SDS011;47431;51.640;5.554;2023-10-13T00:36:37;23.52;;;17.63;;
59790;SDS011;47431;51.640;5.554;2023-10-13T00:39:13;24.65;;;16.73;;
59790;SDS011;47431;51.640;5.554;2023-10-13T00:41:41;24.92;;;16.58;;
59790;SDS011;47431;51.640;5.554;2023-10-13T00:44:18;25.38;;;16.25;;
59790;SDS011;47431;51.640;5.554;2023-10-13T00:46:53;28.77;;;18.13;;
59790;SDS011;47431;51.640;5.554;2023-10-13T00:49:21;25.67;;;16.40;;
59790;SDS011;47431;51.640;5.554;2023-10-13T00:51:48;25.65;;;16.35;;
59790;SDS011;47431;51.640;5.554;2023-10-13T00:54:15;22.55;;;15.35;;
59790;SDS011;47431;51.640;5.554;2023-10-13T00:56:43;30.50;;;17.45;;
59790;SDS011;47431;51.640;5.554;2023-10-13T00:59:29;26.60;;;17.00;;
59790;SDS011;47431;51.640;5.554;2023-10-13T01:01:59;30.65;;;17.27;;
59790;SDS011;47431;51.640;5.554;2023-10-13T01:04:45;28.48;;;16.73;;
59790;SDS011;47431;51.640;5.554;2023-10-13T01:07:11;31.13;;;17.60;;
59790;SDS011;47431;51.640;5.554;2023-10-13T01:09:40;28.02;;;15.07;;
59790;SDS011;47431;51.640;5.554;2023-10-13T01:12:09;36.50;;;16.60;;
59790;SDS011;47431;51.640;5.554;2023-10-13T01:14:34;33.42;;;14.43;;
59790;SDS011;47431;51.640;5.554;2023-10-13T01:17:01;24.83;;;15.95;;
59790;SDS011;47431;51.640;5.554;2023-10-13T01:19:27;24.70;;;16.42;;
59790;SDS011;47431;51.640;5.554;2023-10-13T01:21:53;23.48;;;15.50;;
59790;SDS011;47431;51.640;5.554;2023-10-13T01:24:32;26.98;;;15.73;;
59790;SDS011;47431;51.640;5.554;2023-10-13T01:27:00;24.00;;;14.30;;
59790;SDS011;47431;51.640;5.554;2023-10-13T01:29:42;26.55;;;16.00;;
59790;SDS011;47431;51.640;5.554;2023-10-13T01:32:12;24.27;;;14.85;;
59790;SDS011;47431;51.640;5.554;2023-10-13T01:34:38;23.65;;;14.48;;
59790;SDS011;47431;51.640;5.554;2023-10-13T01:37:03;30.23;;;14.27;;
59790;SDS011;47431;51.640;5.554;2023-10-13T01:39:31;28.83;;;14.32;;
59790;SDS011;47431;51.640;5.554;2023-10-13T01:41:56;22.17;;;13.48;;
59790;SDS011;47431;51.640;5.554;2023-10-13T01:44:25;22.05;;;12.88;;
59790;SDS011;47431;51.640;5.554;2023-10-13T01:46:53;26.50;;;12.90;;
59790;SDS011;47431;51.640;5.554;2023-10-13T01:49:18;25.23;;;14.25;;
59790;SDS011;47431;51.640;5.554;2023-10-13T01:51:44;24.05;;;13.60;;
59790;SDS011;47431;51.640;5.554;2023-10-13T01:54:15;23.63;;;13.48;;
59790;SDS011;47431;51.640;5.554;2023-10-13T01:56:41;25.63;;;13.70;;
59790;SDS011;47431;51.640;5.554;2023-10-13T01:59:12;25.58;;;12.23;;
59790;SDS011;47431;51.640;5.554;2023-10-13T02:01:38;25.58;;;15.00;;
59790;SDS011;47431;51.640;5.554;2023-10-13T02:04:05;30.48;;;12.85;;
59790;SDS011;47431;51.640;5.554;2023-10-13T02:06:32;29.45;;;13.32;;
59790;SDS011;47431;51.640;5.554;2023-10-13T02:08:59;25.00;;;13.05;;
59790;SDS011;47431;51.640;5.554;2023-10-13T02:11:35;25.20;;;12.50;;
59790;SDS011;47431;51.640;5.554;2023-10-13T02:14:02;22.88;;;12.13;;
59790;SDS011;47431;51.640;5.554;2023-10-13T02:16:28;29.05;;;13.52;;
59790;SDS011;47431;51.640;5.554;2023-10-13T02:18:56;19.75;;;12.43;;
59790;SDS011;47431;51.640;5.554;2023-10-13T02:21:23;23.08;;;13.18;;
59790;SDS011;47431;51.640;5.554;2023-10-13T02:23:56;21.77;;;12.90;;
59790;SDS011;47431;51.640;5.554;2023-10-13T02:26:31;25.30;;;11.65;;
59790;SDS011;47431;51.640;5.554;2023-10-13T02:29:00;23.02;;;13.45;;
59790;SDS011;47431;51.640;5.554;2023-10-13T02:31:34;26.88;;;14.98;;
59790;SDS011;47431;51.640;5.554;2023-10-13T02:34:01;23.27;;;13.40;;
59790;SDS011;47431;51.640;5.554;2023-10-13T02:36:31;35.10;;;14.77;;
59790;SDS011;47431;51.640;5.554;2023-10-13T02:39:12;32.33;;;14.52;;
59790;SDS011;47431;51.640;5.554;2023-10-13T02:41:39;27.83;;;15.50;;
59790;SDS011;47431;51.640;5.554;2023-10-13T02:44:05;24.17;;;15.75;;
59790;SDS011;47431;51.640;5.554;2023-10-13T02:46:32;22.33;;;15.40;;
59790;SDS011;47431;51.640;5.554;2023-10-13T02:49:01;34.33;;;16.65;;
59790;SDS011;47431;51.640;5.554;2023-10-13T02:51:34;28.55;;;16.52;;
59790;SDS011;47431;51.640;5.554;2023-10-13T02:54:00;31.13;;;18.05;;
59790;SDS011;47431;51.640;5.554;2023-10-13T02:56:34;29.48;;;18.30;;
59790;SDS011;47431;51.640;5.554;2023-10-13T02:59:00;27.90;;;16.85;;
59790;SDS011;47431;51.640;5.554;2023-10-13T03:01:30;37.10;;;17.95;;
59790;SDS011;47431;51.640;5.554;2023-10-13T03:03:59;37.47;;;20.33;;
59790;SDS011;47431;51.640;5.554;2023-10-13T03:06:26;36.75;;;18.33;;
59790;SDS011;47431;51.640;5.554;2023-10-13T03:09:07;36.05;;;19.58;;
59790;SDS011;47431;51.640;5.554;2023-10-13T03:11:40;37.35;;;21.58;;
59790;SDS011;47431;51.640;5.554;2023-10-13T03:14:13;38.78;;;21.27;;
59790;SDS011;47431;51.640;5.554;2023-10-13T03:16:53;38.80;;;22.92;;
59790;SDS011;47431;51.640;5.554;2023-10-13T03:19:20;36.78;;;22.48;;
59790;SDS011;47431;51.640;5.554;2023-10-13T03:21:46;38.70;;;22.52;;
59790;SDS011;47431;51.640;5.554;2023-10-13T03:24:22;46.67;;;24.30;;
59790;SDS011;47431;51.640;5.554;2023-10-13T03:26:58;46.40;;;26.02;;
59790;SDS011;47431;51.640;5.554;2023-10-13T03:29:49;57.22;;;25.65;;
59790;SDS011;47431;51.640;5.554;2023-10-13T03:32:19;38.90;;;24.35;;
59790;SDS011;47431;51.640;5.554;2023-10-13T03:34:46;49.45;;;25.38;;
59790;SDS011;47431;51.640;5.554;2023-10-13T03:37:31;51.95;;;26.75;;
59790;SDS011;47431;51.640;5.554;2023-10-13T03:40:09;51.58;;;26.50;;
59790;SDS011;47431;51.640;5.554;2023-10-13T03:42:45;57.13;;;28.70;;
59790;SDS011;47431;51.640;5.554;2023-10-13T03:45:44;51.92;;;26.38;;
59790;SDS011;47431;51.640;5.554;2023-10-13T03:48:16;54.00;;;27.77;;
59790;SDS011;47431;51.640;5.554;2023-10-13T03:50:58;63.35;;;29.75;;
59790;SDS011;47431;51.640;5.554;2023-10-13T03:53:34;55.20;;;29.08;;
59790;SDS011;47431;51.640;5.554;2023-10-13T03:56:03;70.47;;;31.30;;
59790;SDS011;47431;51.640;5.554;2023-10-13T03:58:51;64.85;;;30.83;;
59790;SDS011;47431;51.640;5.554;2023-10-13T04:01:19;56.17;;;32.53;;
59790;SDS011;47431;51.640;5.554;2023-10-13T04:03:54;63.28;;;32.42;;
59790;SDS011;47431;51.640;5.554;2023-10-13T04:06:27;65.55;;;31.95;;
59790;SDS011;47431;51.640;5.554;2023-10-13T04:09:24;65.72;;;32.42;;
59790;SDS011;47431;51.640;5.554;2023-10-13T04:12:28;59.83;;;32.70;;
59790;SDS011;47431;51.640;5.554;2023-10-13T04:15:07;62.45;;;33.42;;
59790;SDS011;47431;51.640;5.554;2023-10-13T04:17:47;63.33;;;34.63;;
59790;SDS011;47431;51.640;5.554;2023-10-13T04:20:15;60.50;;;34.72;;
59790;SDS011;47431;51.640;5.554;2023-10-13T04:22:52;63.47;;;33.50;;
59790;SDS011;47431;51.640;5.554;2023-10-13T04:25:18;64.63;;;33.72;;
59790;SDS011;47431;51.640;5.554;2023-10-13T04:28:04;67.68;;;34.13;;
59790;SDS011;47431;51.640;5.554;2023-10-13T04:30:39;55.05;;;33.28;;
59790;SDS011;47431;51.640;5.554;2023-10-13T04:33:17;67.95;;;33.92;;
59790;SDS011;47431;51.640;5.554;2023-10-13T04:36:07;69.78;;;34.30;;
59790;SDS011;47431;51.640;5.554;2023-10-13T04:38:44;60.90;;;32.50;;
59790;SDS011;47431;51.640;5.554;2023-10-13T04:41:37;73.47;;;33.42;;
59790;SDS011;47431;51.640;5.554;2023-10-13T04:44:06;55.22;;;29.67;;
59790;SDS011;47431;51.640;5.554;2023-10-13T04:46:52;56.08;;;29.10;;
59790;SDS011;47431;51.640;5.554;2023-10-13T04:49:25;53.67;;;30.17;;
59790;SDS011;47431;51.640;5.554;2023-10-13T04:52:03;62.08;;;31.33;;
59790;SDS011;47431;51.640;5.554;2023-10-13T04:54:33;51.05;;;29.50;;
59790;SDS011;47431;51.640;5.554;2023-10-13T04:57:00;50.08;;;26.73;;
59790;SDS011;47431;51.640;5.554;2023-10-13T04:59:45;53.70;;;27.25;;
59790;SDS011;47431;51.640;5.554;2023-10-13T05:02:32;46.55;;;25.85;;
59790;SDS011;47431;51.640;5.554;2023-10-13T05:05:03;48.50;;;27.83;;
59790;SDS011;47431;51.640;5.554;2023-10-13T05:07:39;40.88;;;25.38;;
59790;SDS011;47431;51.640;5.554;2023-10-13T05:10:26;41.90;;;22.85;;
59790;SDS011;47431;51.640;5.554;2023-10-13T05:13:10;46.40;;;23.25;;
59790;SDS011;47431;51.640;5.554;2023-10-13T05:15:54;38.65;;;21.85;;
59790;SDS011;47431;51.640;5.554;2023-10-13T05:18:39;41.63;;;22.40;;
59790;SDS011;47431;51.640;5.554;2023-10-13T05:21:23;36.03;;;19.58;;
59790;SDS011;47431;51.640;5.554;2023-10-13T05:24:07;40.03;;;20.65;;
59790;SDS011;47431;51.640;5.554;2023-10-13T05:26:52;35.55;;;20.10;;
59790;SDS011;47431;51.640;5.554;2023-10-13T05:29:40;30.05;;;17.95;;
59790;SDS011;47431;51.640;5.554;2023-10-13T05:32:25;35.70;;;18.27;;
59790;SDS011;47431;51.640;5.554;2023-10-13T05:35:09;31.88;;;17.08;;
59790;SDS011;47431;51.640;5.554;2023-10-13T05:37:53;31.20;;;17.17;;
59790;SDS011;47431;51.640;5.554;2023-10-13T05:40:37;28.92;;;17.45;;
59790;SDS011;47431;51.640;5.554;2023-10-13T05:43:21;29.50;;;16.55;;
59790;SDS011;47431;51.640;5.554;2023-10-13T05:46:05;30.95;;;16.23;;
59790;SDS011;47431;51.640;5.554;2023-10-13T05:49:06;23.95;;;16.08;;
59790;SDS011;47431;51.640;5.554;2023-10-13T05:51:36;28.48;;;16.88;;
59790;SDS011;47431;51.640;5.554;2023-10-13T05:54:05;41.55;;;18.20;;
59790;SDS011;47431;51.640;5.554;2023-10-13T05:59:28;28.05;;;15.07;;
59790;SDS011;47431;51.640;5.554;2023-10-13T06:02:14;26.63;;;16.60;;
59790;SDS011;47431;51.640;5.554;2023-10-13T06:05:03;28.63;;;15.63;;
59790;SDS011;47431;51.640;5.554;2023-10-13T06:07:48;29.60;;;17.17;;
59790;SDS011;47431;51.640;5.554;2023-10-13T06:10:31;27.67;;;15.70;;
59790;SDS011;47431;51.640;5.554;2023-10-13T06:13:15;29.60;;;16.30;;
59790;SDS011;47431;51.640;5.554;2023-10-13T06:15:59;20.77;;;14.40;;
59790;SDS011;47431;51.640;5.554;2023-10-13T06:18:43;25.00;;;15.63;;
59790;SDS011;47431;51.640;5.554;2023-10-13T06:21:27;25.58;;;15.95;;
59790;SDS011;47431;51.640;5.554;2023-10-13T06:24:11;26.13;;;16.67;;
59790;SDS011;47431;51.640;5.554;2023-10-13T06:26:55;31.83;;;17.75;;
59790;SDS011;47431;51.640;5.554;2023-10-13T06:29:39;28.55;;;16.92;;
59790;SDS011;47431;51.640;5.554;2023-10-13T06:32:05;28.90;;;17.45;;
59790;SDS011;47431;51.640;5.554;2023-10-13T06:34:36;30.50;;;16.63;;
59790;SDS011;47431;51.640;5.554;2023-10-13T06:37:12;29.27;;;16.23;;
59790;SDS011;47431;51.640;5.554;2023-10-13T06:39:52;34.10;;;17.58;;
59790;SDS011;47431;51.640;5.554;2023-10-13T06:42:30;28.17;;;16.13;;
59790;SDS011;47431;51.640;5.554;2023-10-13T06:44:59;26.38;;;16.77;;
59790;SDS011;47431;51.640;5.554;2023-10-13T06:47:33;32.53;;;17.02;;
59790;SDS011;47431;51.640;5.554;2023-10-13T06:50:05;28.48;;;15.73;;
59790;SDS011;47431;51.640;5.554;2023-10-13T06:52:40;29.05;;;17.38;;
59790;SDS011;47431;51.640;5.554;2023-10-13T06:55:07;28.52;;;17.08;;
59790;SDS011;47431;51.640;5.554;2023-10-13T06:57:35;29.23;;;15.55;;
59790;SDS011;47431;51.640;5.554;2023-10-13T07:00:00;29.60;;;14.77;;
59790;SDS011;47431;51.640;5.554;2023-10-13T07:04:58;23.13;;;14.02;;
59790;SDS011;47431;51.640;5.554;2023-10-13T07:07:32;24.10;;;15.00;;
59790;SDS011;47431;51.640;5.554;2023-10-13T07:09:58;33.53;;;17.40;;
59790;SDS011;47431;51.640;5.554;2023-10-13T07:12:23;34.67;;;16.08;;
59790;SDS011;47431;51.640;5.554;2023-10-13T07:14:51;26.88;;;14.55;;
59790;SDS011;47431;51.640;5.554;2023-10-13T07:17:18;36.88;;;15.80;;
59790;SDS011;47431;51.640;5.554;2023-10-13T07:19:58;26.80;;;14.93;;
59790;SDS011;47431;51.640;5.554;2023-10-13T07:22:39;28.63;;;15.27;;
59790;SDS011;47431;51.640;5.554;2023-10-13T07:25:05;32.30;;;16.42;;
59790;SDS011;47431;51.640;5.554;2023-10-13T07:27:31;35.92;;;15.18;;
59790;SDS011;47431;51.640;5.554;2023-10-13T07:30:00;29.30;;;14.25;;
59790;SDS011;47431;51.640;5.554;2023-10-13T07:32:42;30.95;;;14.40;;
59790;SDS011;47431;51.640;5.554;2023-10-13T07:35:11;34.70;;;15.00;;
59790;SDS011;47431;51.640;5.554;2023-10-13T07:37:38;27.63;;;14.00;;
59790;SDS011;47431;51.640;5.554;2023-10-13T07:40:07;28.35;;;13.93;;
59790;SDS011;47431;51.640;5.554;2023-10-13T07:42:51;33.03;;;14.50;;
59790;SDS011;47431;51.640;5.554;2023-10-13T07:45:29;32.00;;;14.75;;
59790;SDS011;47431;51.640;5.554;2023-10-13T07:48:05;27.00;;;12.35;;
59790;SDS011;47431;51.640;5.554;2023-10-13T07:50:37;28.63;;;13.88;;
59790;SDS011;47431;51.640;5.554;2023-10-13T07:53:03;28.40;;;14.35;;
59790;SDS011;47431;51.640;5.554;2023-10-13T07:55:48;28.52;;;12.82;;
59790;SDS011;47431;51.640;5.554;2023-10-13T07:58:20;25.30;;;13.32;;
59790;SDS011;47431;51.640;5.554;2023-10-13T08:00:52;27.88;;;13.25;;
59790;SDS011;47431;51.640;5.554;2023-10-13T08:03:24;32.05;;;12.70;;
59790;SDS011;47431;51.640;5.554;2023-10-13T08:06:08;27.73;;;12.10;;
59790;SDS011;47431;51.640;5.554;2023-10-13T08:08:36;22.15;;;11.98;;
59790;SDS011;47431;51.640;5.554;2023-10-13T08:11:08;21.85;;;11.65;;
59790;SDS011;47431;51.640;5.554;2023-10-13T08:13:59;22.73;;;12.48;;
59790;SDS011;47431;51.640;5.554;2023-10-13T08:16:47;24.65;;;11.68;;
59790;SDS011;47431;51.640;5.554;2023-10-13T08:19:19;23.02;;;12.63;;
59790;SDS011;47431;51.640;5.554;2023-10-13T08:21:53;27.13;;;12.52;;
59790;SDS011;47431;51.640;5.554;2023-10-13T08:24:39;27.80;;;13.02;;
59790;SDS011;47431;51.640;5.554;2023-10-13T08:27:05;20.95;;;11.70;;
59790;SDS011;47431;51.640;5.554;2023-10-13T08:29:44;30.75;;;13.00;;
59790;SDS011;47431;51.640;5.554;2023-10-13T08:32:19;29.95;;;12.18;;
59790;SDS011;47431;51.640;5.554;2023-10-13T08:34:54;25.98;;;13.13;;
59790;SDS011;47431;51.640;5.554;2023-10-13T08:37:20;26.40;;;11.23;;
59790;SDS011;47431;51.640;5.554;2023-10-13T08:39:49;21.30;;;9.25;;
59790;SDS011;47431;51.640;5.554;2023-10-13T08:42:31;20.93;;;10.30;;
59790;SDS011;47431;51.640;5.554;2023-10-13T08:45:09;24.92;;;10.60;;
59790;SDS011;47431;51.640;5.554;2023-10-13T08:47:51;24.50;;;10.35;;
59790;SDS011;47431;51.640;5.554;2023-10-13T08:50:20;16.85;;;9.77;;
59790;SDS011;47431;51.640;5.554;2023-10-13T08:53:06;24.67;;;12.07;;
59790;SDS011;47431;51.640;5.554;2023-10-13T08:55:51;16.38;;;9.13;;
59790;SDS011;47431;51.640;5.554;2023-10-13T08:58:42;22.90;;;9.48;;
59790;SDS011;47431;51.640;5.554;2023-10-13T09:01:25;21.20;;;9.60;;
59790;SDS011;47431;51.640;5.554;2023-10-13T09:04:23;21.02;;;9.00;;
59790;SDS011;47431;51.640;5.554;2023-10-13T09:09:28;22.38;;;10.80;;
59790;SDS011;47431;51.640;5.554;2023-10-13T09:12:15;18.98;;;10.43;;
59790;SDS011;47431;51.640;5.554;2023-10-13T09:14:52;21.48;;;10.32;;
59790;SDS011;47431;51.640;5.554;2023-10-13T09:17:30;25.75;;;9.88;;
59790;SDS011;47431;51.640;5.554;2023-10-13T09:19:59;29.30;;;9.95;;
59790;SDS011;47431;51.640;5.554;2023-10-13T09:22:45;22.42;;;8.65;;
59790;SDS011;47431;51.640;5.554;2023-10-13T09:25:21;16.30;;;9.70;;
59790;SDS011;47431;51.640;5.554;2023-10-13T09:27:48;15.50;;;9.60;;
59790;SDS011;47431;51.640;5.554;2023-10-13T09:30:18;18.17;;;9.60;;
59790;SDS011;47431;51.640;5.554;2023-10-13T09:32:45;20.85;;;9.02;;
59790;SDS011;47431;51.640;5.554;2023-10-13T09:35:13;17.95;;;8.85;;
59790;SDS011;47431;51.640;5.554;2023-10-13T09:37:45;19.40;;;9.55;;
59790;SDS011;47431;51.640;5.554;2023-10-13T09:40:12;22.70;;;9.38;;
59790;SDS011;47431;51.640;5.554;2023-10-13T09:43:00;17.85;;;8.75;;
59790;SDS011;47431;51.640;5.554;2023-10-13T09:45:32;25.17;;;11.27;;
59790;SDS011;47431;51.640;5.554;2023-10-13T09:51:06;21.98;;;9.95;;
59790;SDS011;47431;51.640;5.554;2023-10-13T09:53:37;21.05;;;10.25;;
59790;SDS011;47431;51.640;5.554;2023-10-13T10:01:34;23.20;;;9.70;;
59790;SDS011;47431;51.640;5.554;2023-10-13T10:04:09;18.02;;;10.30;;
59790;SDS011;47431;51.640;5.554;2023-10-13T10:06:51;23.45;;;9.95;;
59790;SDS011;47431;51.640;5.554;2023-10-13T10:09:18;19.77;;;9.40;;
59790;SDS011;47431;51.640;5.554;2023-10-13T10:17:26;20.00;;;9.38;;
59790;SDS011;47431;51.640;5.554;2023-10-13T10:19:54;21.23;;;9.02;;
59790;SDS011;47431;51.640;5.554;2023-10-13T10:22:34;15.27;;;8.45;;
59790;SDS011;47431;51.640;5.554;2023-10-13T10:25:01;19.23;;;8.88;;
59790;SDS011;47431;51.640;5.554;2023-10-13T10:27:32;18.25;;;9.00;;
59790;SDS011;47431;51.640;5.554;2023-10-13T10:29:58;23.13;;;8.50;;
59790;SDS011;47431;51.640;5.554;2023-10-13T10:32:38;18.45;;;10.10;;
59790;SDS011;47431;51.640;5.554;2023-10-13T10:35:10;17.85;;;9.30;;
59790;SDS011;47431;51.640;5.554;2023-10-13T10:37:45;18.25;;;8.85;;
59790;SDS011;47431;51.640;5.554;2023-10-13T10:40:17;15.30;;;10.30;;
59790;SDS011;47431;51.640;5.554;2023-10-13T10:43:11;17.77;;;9.88;;
59790;SDS011;47431;51.640;5.554;2023-10-13T10:45:45;18.23;;;9.55;;
59790;SDS011;47431;51.640;5.554;2023-10-13T10:48:12;20.17;;;9.35;;
59790;SDS011;47431;51.640;5.554;2023-10-13T10:50:43;16.10;;;8.17;;
59790;SDS011;47431;51.640;5.554;2023-10-13T10:53:09;14.52;;;8.88;;
59790;SDS011;47431;51.640;5.554;2023-10-13T10:55:38;17.05;;;8.80;;
59790;SDS011;47431;51.640;5.554;2023-10-13T10:58:03;28.48;;;11.38;;
59790;SDS011;47431;51.640;5.554;2023-10-13T11:00:32;19.23;;;8.27;;
59790;SDS011;47431;51.640;5.554;2023-10-13T11:03:11;17.95;;;8.98;;
59790;SDS011;47431;51.640;5.554;2023-10-13T11:05:44;21.85;;;10.57;;
59790;SDS011;47431;51.640;5.554;2023-10-13T11:08:20;16.27;;;9.32;;
59790;SDS011;47431;51.640;5.554;2023-10-13T11:13:40;22.38;;;9.63;;
59790;SDS011;47431;51.640;5.554;2023-10-13T11:16:44;22.70;;;10.90;;
59790;SDS011;47431;51.640;5.554;2023-10-13T11:19:15;24.83;;;8.90;;
59790;SDS011;47431;51.640;5.554;2023-10-13T11:21:50;15.57;;;9.00;;
59790;SDS011;47431;51.640;5.554;2023-10-13T11:24:18;19.13;;;9.30;;
59790;SDS011;47431;51.640;5.554;2023-10-13T11:26:43;17.33;;;9.35;;
59790;SDS011;47431;51.640;5.554;2023-10-13T11:29:30;19.77;;;9.65;;
59790;SDS011;47431;51.640;5.554;2023-10-13T11:31:56;15.68;;;8.75;;
59790;SDS011;47431;51.640;5.554;2023-10-13T11:34:24;31.35;;;11.35;;
59790;SDS011;47431;51.640;5.554;2023-10-13T11:36:50;17.70;;;9.00;;
59790;SDS011;47431;51.640;5.554;2023-10-13T11:39:15;17.10;;;9.13;;
59790;SDS011;47431;51.640;5.554;2023-10-13T11:42:03;19.67;;;9.48;;
59790;SDS011;47431;51.640;5.554;2023-10-13T11:44:35;21.92;;;10.10;;
59790;SDS011;47431;51.640;5.554;2023-10-13T11:47:08;17.55;;;9.57;;
59790;SDS011;47431;51.640;5.554;2023-10-13T11:49:54;17.30;;;8.70;;
59790;SDS011;47431;51.640;5.554;2023-10-13T11:52:23;17.58;;;8.98;;
59790;SDS011;47431;51.640;5.554;2023-10-13T11:54:53;26.70;;;9.50;;
59790;SDS011;47431;51.640;5.554;2023-10-13T11:57:18;20.23;;;8.45;;
59790;SDS011;47431;51.640;5.554;2023-10-13T11:59:45;22.15;;;9.27;;
59790;SDS011;47431;51.640;5.554;2023-10-13T12:02:18;20.73;;;9.40;;
59790;SDS011;47431;51.640;5.554;2023-10-13T12:04:51;19.02;;;9.32;;
59790;SDS011;47431;51.640;5.554;2023-10-13T12:07:21;23.08;;;9.75;;
59790;SDS011;47431;51.640;5.554;2023-10-13T12:09:48;30.25;;;9.57;;
59790;SDS011;47431;51.640;5.554;2023-10-13T12:12:27;17.00;;;7.97;;
59790;SDS011;47431;51.640;5.554;2023-10-13T12:14:53;17.27;;;7.65;;
59790;SDS011;47431;51.640;5.554;2023-10-13T12:17:21;27.58;;;11.05;;
59790;SDS011;47431;51.640;5.554;2023-10-13T12:19:59;24.00;;;9.23;;
59790;SDS011;47431;51.640;5.554;2023-10-13T12:22:26;22.25;;;9.45;;
59790;SDS011;47431;51.640;5.554;2023-10-13T12:25:00;25.90;;;10.07;;
59790;SDS011;47431;51.640;5.554;2023-10-13T12:27:29;26.10;;;9.77;;
59790;SDS011;47431;51.640;5.554;2023-10-13T12:30:10;19.10;;;8.98;;
59790;SDS011;47431;51.640;5.554;2023-10-13T12:32:39;24.15;;;9.73;;
59790;SDS011;47431;51.640;5.554;2023-10-13T12:35:19;24.45;;;9.75;;
59790;SDS011;47431;51.640;5.554;2023-10-13T12:38:00;15.32;;;8.00;;
59790;SDS011;47431;51.640;5.554;2023-10-13T12:40:41;34.42;;;9.18;;
59790;SDS011;47431;51.640;5.554;2023-10-13T12:43:25;20.65;;;8.48;;
59790;SDS011;47431;51.640;5.554;2023-10-13T12:46:11;22.67;;;9.30;;
59790;SDS011;47431;51.640;5.554;2023-10-13T12:48:54;26.00;;;9.32;;
59790;SDS011;47431;51.640;5.554;2023-10-13T12:51:41;23.08;;;9.30;;
59790;SDS011;47431;51.640;5.554;2023-10-13T12:54:15;17.70;;;8.20;;
59790;SDS011;47431;51.640;5.554;2023-10-13T12:56:45;23.00;;;10.23;;
59790;SDS011;47431;51.640;5.554;2023-10-13T12:59:10;25.00;;;8.88;;
59790;SDS011;47431;51.640;5.554;2023-10-13T13:01:38;26.73;;;9.63;;
59790;SDS011;47431;51.640;5.554;2023-10-13T13:04:08;19.20;;;7.75;;
59790;SDS011;47431;51.640;5.554;2023-10-13T13:06:37;19.63;;;7.85;;
59790;SDS011;47431;51.640;5.554;2023-10-13T13:09:05;25.30;;;9.25;;
59790;SDS011;47431;51.640;5.554;2023-10-13T13:11:34;23.35;;;8.38;;
59790;SDS011;47431;51.640;5.554;2023-10-13T13:14:04;22.65;;;8.23;;
59790;SDS011;47431;51.640;5.554;2023-10-13T13:16:32;27.73;;;10.48;;
59790;SDS011;47431;51.640;5.554;2023-10-13T13:18:58;24.60;;;9.05;;
59790;SDS011;47431;51.640;5.554;2023-10-13T13:21:23;25.77;;;8.27;;
59790;SDS011;47431;51.640;5.554;2023-10-13T13:23:49;24.83;;;8.73;;
59790;SDS011;47431;51.640;5.554;2023-10-13T13:26:15;33.78;;;8.52;;
59790;SDS011;47431;51.640;5.554;2023-10-13T13:28:44;32.97;;;8.30;;
59790;SDS011;47431;51.640;5.554;2023-10-13T13:31:10;27.63;;;8.35;;
59790;SDS011;47431;51.640;5.554;2023-10-13T13:33:37;31.77;;;9.63;;
59790;SDS011;47431;51.640;5.554;2023-10-13T13:36:07;23.83;;;7.72;;
59790;SDS011;47431;51.640;5.554;2023-10-13T13:38:38;31.83;;;8.45;;
59790;SDS011;47431;51.640;5.554;2023-10-13T13:41:05;33.42;;;7.95;;
59790;SDS011;47431;51.640;5.554;2023-10-13T13:43:36;29.83;;;8.17;;
59790;SDS011;47431;51.640;5.554;2023-10-13T13:46:06;16.75;;;7.18;;
59790;SDS011;47431;51.640;5.554;2023-10-13T13:48:36;28.77;;;8.57;;
59790;SDS011;47431;51.640;5.554;2023-10-13T13:51:03;28.73;;;9.90;;
59790;SDS011;47431;51.640;5.554;2023-10-13T13:53:39;27.92;;;9.10;;
59790;SDS011;47431;51.640;5.554;2023-10-13T13:56:10;24.48;;;8.07;;
59790;SDS011;47431;51.640;5.554;2023-10-13T13:58:43;15.05;;;5.60;;
59790;SDS011;47431;51.640;5.554;2023-10-13T14:01:09;31.08;;;10.07;;
59790;SDS011;47431;51.640;5.554;2023-10-13T14:03:40;23.52;;;7.60;;
59790;SDS011;47431;51.640;5.554;2023-10-13T14:08:48;15.07;;;6.15;;
59790;SDS011;47431;51.640;5.554;2023-10-13T14:11:17;17.30;;;7.93;;
59790;SDS011;47431;51.640;5.554;2023-10-13T14:14:01;23.20;;;7.20;;
59790;SDS011;47431;51.640;5.554;2023-10-13T14:16:30;18.83;;;7.85;;
59790;SDS011;47431;51.640;5.554;2023-10-13T14:18:58;27.35;;;10.90;;
59790;SDS011;47431;51.640;5.554;2023-10-13T14:21:26;25.73;;;8.27;;
59790;SDS011;47431;51.640;5.554;2023-10-13T14:23:52;16.27;;;7.50;;
59790;SDS011;47431;51.640;5.554;2023-10-13T14:26:19;22.08;;;9.88;;
59790;SDS011;47431;51.640;5.554;2023-10-13T14:28:46;15.93;;;7.70;;
59790;SDS011;47431;51.640;5.554;2023-10-13T14:31:20;29.27;;;9.35;;
59790;SDS011;47431;51.640;5.554;2023-10-13T14:33:46;13.73;;;7.78;;
59790;SDS011;47431;51.640;5.554;2023-10-13T14:36:12;32.42;;;9.77;;
59790;SDS011;47431;51.640;5.554;2023-10-13T14:38:38;24.25;;;10.18;;
59790;SDS011;47431;51.640;5.554;2023-10-13T14:41:03;21.20;;;9.82;;
59790;SDS011;47431;51.640;5.554;2023-10-13T14:43:30;32.35;;;10.98;;
59790;SDS011;47431;51.640;5.554;2023-10-13T14:45:56;31.63;;;10.23;;
59790;SDS011;47431;51.640;5.554;2023-10-13T14:48:21;22.58;;;9.93;;
59790;SDS011;47431;51.640;5.554;2023-10-13T14:50:49;30.88;;;9.07;;
59790;SDS011;47431;51.640;5.554;2023-10-13T14:53:14;25.92;;;7.40;;
59790;SDS011;47431;51.640;5.554;2023-10-13T14:55:47;33.42;;;10.20;;
59790;SDS011;47431;51.640;5.554;2023-10-13T14:58:13;29.08;;;9.77;;
59790;SDS011;47431;51.640;5.554;2023-10-13T15:00:41;16.80;;;8.43;;
59790;SDS011;47431;51.640;5.554;2023-10-13T15:03:13;23.35;;;7.75;;
59790;SDS011;47431;51.640;5.554;2023-10-13T15:05:38;27.50;;;9.95;;
59790;SDS011;47431;51.640;5.554;2023-10-13T15:08:04;22.08;;;7.82;;
59790;SDS011;47431;51.640;5.554;2023-10-13T15:10:31;26.05;;;8.63;;
59790;SDS011;47431;51.640;5.554;2023-10-13T15:12:57;21.20;;;8.57;;
59790;SDS011;47431;51.640;5.554;2023-10-13T15:15:24;13.02;;;6.85;;
59790;SDS011;47431;51.640;5.554;2023-10-13T15:17:49;17.27;;;8.02;;
59790;SDS011;47431;51.640;5.554;2023-10-13T15:20:15;19.77;;;8.55;;
59790;SDS011;47431;51.640;5.554;2023-10-13T15:22:49;16.98;;;7.88;;
59790;SDS011;47431;51.640;5.554;2023-10-13T15:25:19;21.50;;;8.45;;
59790;SDS011;47431;51.640;5.554;2023-10-13T15:27:56;21.20;;;8.00;;
59790;SDS011;47431;51.640;5.554;2023-10-13T15:30:28;19.70;;;7.90;;